Time;durP1;ratioP1;P1;durP2;ratioP2;P2;SDS_P1;SDS_P2;PMS_P1;PMS_P2;Temp;Humidity;BMP_temperature;BMP_pressure;BME280_temperature;BME280_humidity;BME280_pressure;Samples;Min_cycle;Max_cycle;Signal;HPM_P1;HPM_P2
2023/07/18 00:02:26;;;;;;;15.40;14.00;;;;;;;25.71;69.32;95061.16;5092514;28;20454;-83
2023/07/18 00:04:54;;;;;;;18.83;14.23;;;;;;;25.68;69.51;95065.09;5092738;28;20509;-82
2023/07/18 00:07:21;;;;;;;16.13;13.90;;;;;;;25.59;69.79;95051.09;5040997;28;20851;-81
2023/07/18 00:09:48;;;;;;;15.63;14.13;;;;;;;25.50;69.85;95030.09;5093158;28;20518;-83
2023/07/18 00:12:14;;;;;;;15.80;14.20;;;;;;;25.52;70.38;95047.63;5093123;28;20470;-82
2023/07/18 00:14:41;;;;;;;15.10;13.50;;;;;;;25.45;71.09;95059.50;5093547;28;20444;-82
2023/07/18 00:17:08;;;;;;;15.40;13.57;;;;;;;25.37;71.40;95049.81;5092838;28;20444;-83
2023/07/18 00:19:37;;;;;;;16.00;14.30;;;;;;;25.32;72.51;95055.84;5092929;28;20447;-82
2023/07/18 00:22:04;;;;;;;16.13;14.53;;;;;;;25.26;72.65;95056.72;5092602;28;20470;-83
2023/07/18 00:24:31;;;;;;;17.67;15.80;;;;;;;25.24;73.30;95047.22;5023704;28;20448;-82
2023/07/18 00:26:58;;;;;;;16.40;14.63;;;;;;;25.16;74.02;95032.19;5040505;28;20463;-80
2023/07/18 00:29:25;;;;;;;16.50;14.80;;;;;;;25.14;74.76;95042.31;5092461;28;20451;-82
2023/07/18 00:31:52;;;;;;;16.33;14.83;;;;;;;25.09;75.66;95041.31;5092378;28;20997;-82
2023/07/18 00:34:18;;;;;;;16.38;14.70;;;;;;;24.97;75.98;95041.16;5093095;28;20459;-82
2023/07/18 00:36:47;;;;;;;16.43;14.73;;;;;;;24.96;76.41;95039.50;5093677;28;21268;-82
2023/07/18 00:39:13;;;;;;;16.73;13.97;;;;;;;24.94;75.88;95034.34;5093785;28;20434;-83
2023/07/18 00:41:40;;;;;;;15.73;13.97;;;;;;;24.91;75.98;95034.78;5093357;28;20830;-81
2023/07/18 00:44:07;;;;;;;16.70;15.00;;;;;;;24.89;76.00;95031.50;5093658;28;20435;-82
2023/07/18 00:46:34;;;;;;;16.23;14.67;;;;;;;24.91;75.80;95028.59;5049490;28;20446;-82
2023/07/18 00:52:28;;;;;;;17.37;15.50;;;;;;;24.89;75.10;95019.94;5115249;28;20552;-84
2023/07/18 00:54:55;;;;;;;17.10;15.33;;;;;;;24.77;75.50;95005.53;5051654;28;20469;-78
2023/07/18 00:57:23;;;;;;;16.50;14.80;;;;;;;24.85;75.14;95016.00;5048904;28;20457;-81
2023/07/18 00:59:51;;;;;;;15.60;14.20;;;;;;;24.85;75.03;95010.63;5034687;28;20441;-84
2023/07/18 01:02:18;;;;;;;26.33;13.10;;;;;;;24.87;74.93;95014.78;5034952;28;20830;-84
2023/07/18 01:04:45;;;;;;;15.63;14.13;;;;;;;24.93;74.04;95010.41;5035248;28;20430;-85
2023/07/18 01:07:12;;;;;;;15.17;13.53;;;;;;;25.00;74.03;95016.59;5034910;28;20438;-84
2023/07/18 01:09:40;;;;;;;17.03;15.43;;;;;;;24.98;73.20;95007.91;5034608;28;20447;-83
2023/07/18 01:12:08;;;;;;;15.20;13.70;;;;;;;24.96;73.52;94996.56;5041016;28;20976;-85
2023/07/18 01:14:34;;;;;;;16.10;14.43;;;;;;;24.93;73.59;95005.03;5097030;28;20877;-82
2023/07/18 01:17:01;;;;;;;15.53;13.93;;;;;;;24.91;73.47;95007.13;5096926;28;20430;-82
2023/07/18 01:19:28;;;;;;;21.40;15.50;;;;;;;24.82;73.49;94998.47;5097082;28;20416;-85
2023/07/18 01:21:57;;;;;;;16.03;14.27;;;;;;;24.77;73.74;94994.78;5097720;28;20428;-81
2023/07/18 01:24:23;;;;;;;16.03;13.13;;;;;;;24.65;74.49;95006.22;5096915;28;20525;-84
2023/07/18 01:26:52;;;;;;;17.10;15.30;;;;;;;24.62;74.40;94995.09;5097659;28;20805;-83
2023/07/18 01:29:19;;;;;;;16.03;14.43;;;;;;;24.55;74.67;95005.84;5096910;28;20437;-82
2023/07/18 01:31:48;;;;;;;16.57;14.87;;;;;;;24.65;75.59;95014.28;5097166;28;20502;-85
2023/07/18 01:34:15;;;;;;;17.27;15.47;;;;;;;24.69;76.07;95018.16;5096653;28;20439;-85
2023/07/18 01:36:42;;;;;;;15.97;14.27;;;;;;;24.61;76.50;95013.06;5096852;28;20528;-82
2023/07/18 01:39:10;;;;;;;17.70;15.73;;;;;;;24.34;78.79;95020.38;5045221;28;20930;-85
2023/07/18 01:51:41;;;;;;;19.00;16.83;;;;;;;24.02;81.43;95024.78;5096469;28;20447;-85
2023/07/18 01:54:11;;;;;;;20.23;17.63;;;;;;;24.06;81.83;95026.00;5096352;28;20486;-84
2023/07/18 01:56:38;;;;;;;20.27;16.73;;;;;;;24.10;81.20;95026.41;5052707;28;20445;-83
2023/07/18 01:59:05;;;;;;;20.80;16.30;;;;;;;24.15;81.43;95023.09;5108151;28;20438;-85
2023/07/18 02:01:32;;;;;;;18.00;16.10;;;;;;;24.21;81.26;95027.59;5106897;28;20778;-85
2023/07/18 02:03:59;;;;;;;20.87;16.60;;;;;;;24.25;80.61;95015.41;5106100;28;20443;-83
2023/07/18 02:06:26;;;;;;;17.53;15.70;;;;;;;24.29;79.97;95019.38;5106405;28;20447;-85
2023/07/18 02:08:52;;;;;;;16.07;14.43;;;;;;;24.26;79.14;95009.84;5105167;28;20513;-84
2023/07/18 02:11:21;;;;;;;16.27;13.97;;;;;;;24.30;78.19;95010.31;5069572;28;20456;-84
2023/07/18 02:13:48;;;;;;;16.03;14.53;;;;;;;24.28;77.03;95015.03;5104309;28;20471;-86
2023/07/18 02:16:14;;;;;;;16.73;15.03;;;;;;;24.27;77.24;95016.03;5103661;28;20444;-85
2023/07/18 02:18:43;;;;;;;17.87;15.97;;;;;;;24.25;76.49;95018.91;5103375;28;20447;-84
2023/07/18 02:21:10;;;;;;;21.23;14.77;;;;;;;24.21;76.47;95022.25;5103453;28;20443;-84
2023/07/18 02:23:36;;;;;;;18.03;16.13;;;;;;;24.15;76.16;95015.88;5108954;28;20442;-81
2023/07/18 02:26:04;;;;;;;17.60;15.80;;;;;;;24.18;76.19;95022.66;5113337;28;20442;-84
2023/07/18 02:28:32;;;;;;;17.23;15.43;;;;;;;24.12;76.32;95023.50;5061895;28;20438;-84
2023/07/18 02:30:59;;;;;;;16.77;15.07;;;;;;;24.08;76.62;95023.94;5114077;28;20442;-85
2023/07/18 02:33:26;;;;;;;16.10;14.10;;;;;;;24.05;76.82;95019.00;5114158;28;20478;-83
2023/07/18 02:35:53;;;;;;;16.80;15.10;;;;;;;24.08;76.69;95028.47;5114653;28;20483;-82
2023/07/18 02:38:20;;;;;;;16.10;14.40;;;;;;;24.09;76.04;95033.63;5115511;28;20437;-85
2023/07/18 02:40:46;;;;;;;15.70;14.10;;;;;;;24.09;76.35;95036.31;5113009;28;20451;-83
2023/07/18 02:43:14;;;;;;;17.17;15.37;;;;;;;24.09;75.92;95033.63;5112226;28;20443;-84
2023/07/18 02:45:42;;;;;;;16.70;15.10;;;;;;;24.08;76.08;95034.66;5048439;28;20949;-82
2023/07/18 02:48:09;;;;;;;17.10;14.83;;;;;;;24.05;76.34;95039.63;5096312;28;20453;-84
2023/07/18 02:50:36;;;;;;;15.93;14.23;;;;;;;23.94;76.56;95037.56;5044191;28;20443;-84
2023/07/18 02:56:24;;;;;;;16.77;15.20;;;;;;;23.88;76.48;95033.03;5094645;28;20462;-84
2023/07/18 02:58:51;;;;;;;15.43;13.87;;;;;;;23.87;76.86;95034.91;5095511;28;20450;-85
2023/07/18 03:01:20;;;;;;;16.87;15.17;;;;;;;23.75;76.67;95031.22;5095805;28;20438;-84
2023/07/18 03:03:47;;;;;;;17.43;15.63;;;;;;;23.77;76.94;95037.19;5095688;28;21214;-83
2023/07/18 03:06:15;;;;;;;20.20;14.47;;;;;;;23.77;76.53;95038.00;5095744;28;20431;-83
2023/07/18 03:08:42;;;;;;;17.23;15.57;;;;;;;23.78;76.53;95044.19;5096114;28;20434;-84
2023/07/18 03:11:08;;;;;;;16.77;15.03;;;;;;;23.74;76.73;95030.41;5095310;28;20438;-85
2023/07/18 03:16:59;;;;;;;16.67;14.73;;;;;;;23.81;76.96;95043.78;5094760;28;20459;-84
2023/07/18 03:19:25;;;;;;;16.87;15.20;;;;;;;24.01;79.55;95044.59;5076176;28;20947;-85
2023/07/18 03:21:52;;;;;;;16.40;14.60;;;;;;;24.27;77.44;95040.16;5095440;28;20436;-85
2023/07/18 03:24:19;;;;;;;16.57;14.80;;;;;;;24.53;76.06;95045.47;5095775;28;20441;-85
2023/07/18 03:26:49;;;;;;;17.00;15.03;;;;;;;24.71;74.58;95045.63;5095846;28;20432;-81
2023/07/18 03:29:22;;;;;;;16.80;14.40;;;;;;;24.92;74.81;95040.97;5098647;28;20447;-87
2023/07/18 03:31:49;;;;;;;18.13;14.33;;;;;;;25.31;72.73;95045.31;5099488;28;20432;-87
2023/07/18 03:34:17;;;;;;;20.10;13.80;;;;;;;25.63;71.24;95054.16;5099579;28;20480;-88
2023/07/18 03:36:44;;;;;;;16.20;14.53;;;;;;;25.99;70.92;95041.88;5099892;28;20825;-87
2023/07/18 03:39:13;;;;;;;23.50;12.83;;;;;;;26.31;68.80;95038.06;5094853;28;20463;-87
2023/07/18 03:41:40;;;;;;;15.17;13.67;;;;;;;26.66;67.31;95049.06;5094577;28;20433;-86
2023/07/18 03:47:47;;;;;;;17.77;14.30;;;;;;;27.17;64.84;95062.06;5094403;28;20449;-85
2023/07/18 03:50:17;;;;;;;14.10;12.70;;;;;;;27.28;63.59;95059.66;5094364;28;20439;-83
2023/07/18 03:52:46;;;;;;;16.67;13.37;;;;;;;27.44;62.26;95069.78;5094719;28;20471;-83
2023/07/18 03:55:13;;;;;;;15.53;13.40;;;;;;;27.66;62.49;95078.19;5094209;28;20950;-83
2023/07/18 03:57:41;;;;;;;15.00;12.87;;;;;;;27.90;60.77;95077.19;5095174;28;20919;-84
2023/07/18 04:00:13;;;;;;;15.30;13.87;;;;;;;28.16;61.00;95085.88;5094369;28;20530;-84
2023/07/18 04:02:45;;;;;;;14.83;13.40;;;;;;;28.33;59.92;95093.03;5074063;28;20440;-85
2023/07/18 04:05:17;;;;;;;15.73;13.30;;;;;;;28.50;59.44;95103.16;5073842;28;20440;-81
2023/07/18 04:07:52;;;;;;;18.87;14.40;;;;;;;28.51;58.40;95094.81;5073815;28;20531;-81
2023/07/18 04:10:19;;;;;;;18.30;13.80;;;;;;;28.51;58.28;95108.31;5073576;28;20449;-78
2023/07/18 04:12:48;;;;;;;20.83;14.80;;;;;;;28.40;58.66;95100.22;5073627;28;20444;-81
2023/07/18 04:15:15;;;;;;;21.60;13.97;;;;;;;28.34;59.39;95100.13;5073451;28;20444;-81
2023/07/18 04:17:54;;;;;;;16.97;13.87;;;;;;;28.28;59.58;95092.13;5073474;28;20444;-82
2023/07/18 04:20:22;;;;;;;16.30;14.70;;;;;;;28.21;60.72;95096.78;5086048;28;20447;-81
2023/07/18 04:22:51;;;;;;;15.70;14.20;;;;;;;28.16;60.62;95094.78;5090934;28;20934;-82
2023/07/18 04:25:18;;;;;;;14.63;13.10;;;;;;;28.26;61.20;95086.94;5093603;28;20497;-81
2023/07/18 04:27:47;;;;;;;14.87;12.90;;;;;;;28.55;60.27;95097.84;5093398;28;20444;-80
2023/07/18 04:30:14;;;;;;;14.17;12.90;;;;;;;28.77;58.55;95085.38;5093854;28;20497;-80
2023/07/18 04:32:44;;;;;;;15.30;13.80;;;;;;;28.96;57.87;95086.91;5093333;28;20444;-81
2023/07/18 04:35:10;;;;;;;14.43;13.00;;;;;;;29.21;58.01;95081.19;5093737;28;20452;-81
2023/07/18 04:37:41;;;;;;;16.00;13.23;;;;;;;29.43;58.31;95075.88;5094326;28;20493;-79
2023/07/18 04:40:19;;;;;;;15.53;13.97;;;;;;;29.63;57.40;95078.16;5093725;28;20428;-79
2023/07/18 04:42:46;;;;;;;14.17;12.67;;;;;;;29.80;56.39;95078.19;5093691;28;20440;-79
2023/07/18 04:45:15;;;;;;;21.50;14.00;;;;;;;29.96;57.51;95084.66;5092671;28;20455;-78
2023/07/18 04:47:45;;;;;;;18.13;14.17;;;;;;;30.06;56.06;95077.56;5091979;28;20436;-80
2023/07/18 04:50:22;;;;;;;14.10;12.70;;;;;;;30.20;56.10;95076.16;5073989;28;20456;-82
2023/07/18 04:52:52;;;;;;;14.60;13.17;;;;;;;30.28;54.91;95077.63;5038789;28;20446;-81
2023/07/18 04:55:21;;;;;;;15.63;13.60;;;;;;;30.45;56.09;95067.59;5093290;28;20458;-80
2023/07/18 04:57:54;;;;;;;13.60;12.30;;;;;;;30.58;55.40;95068.28;5093365;28;20440;-81
2023/07/18 05:00:21;;;;;;;14.97;13.60;;;;;;;30.61;53.95;95065.09;5014411;28;20452;-80
2023/07/18 05:02:48;;;;;;;16.27;14.67;;;;;;;30.71;53.74;95060.66;5041779;28;20443;-82
2023/07/18 05:05:15;;;;;;;15.20;13.53;;;;;;;30.80;53.84;95055.63;5092395;28;20447;-80
2023/07/18 05:07:44;;;;;;;14.63;13.20;;;;;;;30.91;56.25;95062.78;5092149;28;20459;-83
2023/07/18 05:10:12;;;;;;;14.37;13.00;;;;;;;30.96;52.28;95064.75;5092557;28;20784;-85
2023/07/18 05:12:39;;;;;;;18.07;13.40;;;;;;;30.89;51.69;95058.69;5092975;28;20864;-84
2023/07/18 05:15:08;;;;;;;16.17;14.60;;;;;;;30.91;51.71;95070.09;5093684;28;20476;-84
2023/07/18 05:17:35;;;;;;;16.23;13.43;;;;;;;30.86;52.25;95064.63;5093950;28;20930;-85
2023/07/18 05:20:02;;;;;;;16.93;14.20;;;;;;;30.77;52.37;95064.25;5093623;28;20443;-84
2023/07/18 05:22:39;;;;;;;16.67;14.47;;;;;;;30.75;52.64;95058.25;5093810;28;20428;-84
2023/07/18 05:25:07;;;;;;;14.80;13.50;;;;;;;30.74;52.39;95060.16;5092406;28;20911;-85
2023/07/18 05:27:36;;;;;;;14.80;13.40;;;;;;;30.77;52.79;95056.94;5092636;28;20459;-85
2023/07/18 05:42:50;;;;;;;14.67;13.40;;;;;;;31.64;51.54;95064.16;5102489;27;20565;-83
2023/07/18 05:45:17;;;;;;;20.93;13.43;;;;;;;31.86;50.55;95066.84;5054780;28;20452;-78
2023/07/18 05:47:44;;;;;;;15.13;13.50;;;;;;;32.18;50.63;95068.72;5089877;28;20448;-77
2023/07/18 05:50:11;;;;;;;17.17;15.57;;;;;;;32.46;49.59;95070.28;5089956;28;20437;-78
2023/07/18 05:52:38;;;;;;;23.87;13.87;;;;;;;32.64;49.09;95067.94;5090185;28;20448;-78
2023/07/18 05:55:06;;;;;;;15.60;14.03;;;;;;;32.85;48.99;95073.53;5090049;28;20440;-78
2023/07/18 05:57:42;;;;;;;14.97;13.50;;;;;;;33.05;48.70;95065.47;5089760;28;20468;-78
2023/07/18 06:00:13;;;;;;;22.83;14.30;;;;;;;33.19;47.87;95077.47;5090128;28;20432;-78
2023/07/18 06:02:40;;;;;;;23.07;14.83;;;;;;;33.31;46.77;95066.38;5090001;28;20577;-80
2023/07/18 06:05:09;;;;;;;19.13;14.77;;;;;;;33.34;46.96;95065.03;5090047;28;20451;-81
2023/07/18 06:07:36;;;;;;;22.43;15.90;;;;;;;33.39;47.20;95062.31;5090080;28;20436;-82
2023/07/18 06:10:03;;;;;;;17.03;15.27;;;;;;;33.50;46.77;95069.41;5090030;28;20949;-82
2023/07/18 06:12:30;;;;;;;19.47;14.87;;;;;;;33.57;46.60;95059.09;5089699;28;20441;-81
2023/07/18 06:14:57;;;;;;;35.57;18.60;;;;;;;33.65;46.31;95060.47;5089949;28;20478;-83
2023/07/18 06:17:25;;;;;;;15.77;14.47;;;;;;;33.44;46.49;95067.78;5089592;28;20447;-81
2023/07/18 06:19:52;;;;;;;19.63;16.50;;;;;;;33.51;46.82;95062.88;5070795;28;20502;-81
2023/07/18 06:22:19;;;;;;;19.17;17.17;;;;;;;33.60;46.63;95057.75;5089220;28;20452;-82
2023/07/18 06:24:47;;;;;;;17.33;15.63;;;;;;;33.53;46.30;95052.53;5089531;28;20452;-82
2023/07/18 06:27:13;;;;;;;16.73;14.77;;;;;;;33.60;46.33;95064.00;5089394;28;20542;-80
2023/07/18 06:29:40;;;;;;;16.13;14.67;;;;;;;33.71;46.27;95060.19;5070241;28;20432;-79
2023/07/18 06:32:08;;;;;;;15.60;14.30;;;;;;;33.61;45.96;95049.31;5089161;28;20889;-80
2023/07/18 06:34:40;;;;;;;16.60;15.17;;;;;;;33.76;46.75;95056.66;5089451;28;20444;-83
2023/07/18 06:37:08;;;;;;;20.27;14.93;;;;;;;33.90;46.28;95056.97;5089188;28;20451;-82
2023/07/18 06:39:36;;;;;;;16.80;14.97;;;;;;;34.13;45.93;95053.72;5089010;28;20526;-82
2023/07/18 06:42:05;;;;;;;15.83;14.23;;;;;;;34.32;45.15;95049.31;5099763;28;20556;-82
2023/07/18 06:44:32;;;;;;;15.83;14.37;;;;;;;34.42;45.01;95052.06;5095908;28;20966;-82
2023/07/18 06:46:58;;;;;;;19.93;18.03;;;;;;;34.40;44.79;95056.13;5060501;28;20439;-82
2023/07/18 06:49:26;;;;;;;17.80;16.07;;;;;;;34.25;44.88;95048.78;5043809;28;20432;-81
2023/07/18 06:51:54;;;;;;;19.40;16.47;;;;;;;34.29;44.81;95054.50;5096045;28;20484;-81
2023/07/18 06:54:21;;;;;;;19.17;17.17;;;;;;;34.29;44.88;95054.50;5095886;28;20832;-82
2023/07/18 06:56:47;;;;;;;18.93;16.87;;;;;;;34.29;44.86;95062.69;5060855;28;20451;-82
2023/07/18 06:59:15;;;;;;;18.47;16.87;;;;;;;34.45;45.53;95064.34;5060610;28;20823;-82
2023/07/18 07:01:42;;;;;;;19.37;17.27;;;;;;;34.54;44.96;95056.41;5095857;28;20443;-82
2023/07/18 07:04:10;;;;;;;20.07;18.00;;;;;;;34.38;44.40;95063.78;5095759;28;20533;-82
2023/07/18 07:06:41;;;;;;;20.03;18.03;;;;;;;34.41;44.15;95064.06;5095748;28;20447;-82
2023/07/18 07:09:10;;;;;;;21.20;17.00;;;;;;;34.32;45.16;95057.50;5095282;28;20462;-81
2023/07/18 07:11:39;;;;;;;22.40;18.07;;;;;;;34.20;45.00;95058.88;5095594;28;20576;-82
2023/07/18 07:14:06;;;;;;;23.10;18.40;;;;;;;33.99;45.85;95066.22;5096105;28;20447;-82
2023/07/18 07:16:34;;;;;;;20.27;16.73;;;;;;;34.11;46.14;95064.03;5101011;28;20444;-81
2023/07/18 07:19:02;;;;;;;18.73;17.03;;;;;;;34.16;46.01;95066.78;5115517;28;20571;-81
2023/07/18 07:21:29;;;;;;;19.10;16.97;;;;;;;33.94;45.59;95066.25;5107281;28;20478;-81
2023/07/18 07:23:56;;;;;;;20.30;18.20;;;;;;;33.82;46.40;95061.00;5060080;28;20448;-81
2023/07/18 07:26:24;;;;;;;26.10;18.40;;;;;;;33.67;47.10;95064.56;5095068;28;20937;-82
2023/07/18 07:28:51;;;;;;;19.93;17.30;;;;;;;33.72;47.49;95061.00;5095687;28;20816;-81
2023/07/18 07:31:18;;;;;;;22.70;19.63;;;;;;;33.68;47.18;95060.75;5094779;28;20571;-80
2023/07/18 07:33:45;;;;;;;22.63;19.53;;;;;;;33.61;47.47;95062.09;5094878;28;20436;-81
2023/07/18 07:36:12;;;;;;;22.03;18.40;;;;;;;33.63;47.98;95065.38;5094602;28;20440;-81
2023/07/18 07:38:39;;;;;;;29.07;19.57;;;;;;;33.60;47.47;95058.56;5095182;28;20447;-81
2023/07/18 07:41:06;;;;;;;22.97;18.87;;;;;;;33.55;49.09;95055.84;5094779;28;20486;-81
2023/07/18 07:43:34;;;;;;;21.90;19.60;;;;;;;33.48;49.41;95063.41;5094899;28;20790;-81
2023/07/18 07:46:01;;;;;;;24.57;20.37;;;;;;;33.47;48.58;95054.44;5094605;28;20963;-81
2023/07/18 07:48:28;;;;;;;21.23;19.00;;;;;;;33.53;50.24;95057.97;5094504;28;20436;-81
2023/07/18 07:50:54;;;;;;;28.27;20.20;;;;;;;33.16;49.91;95061.69;5094926;28;20448;-81
2023/07/18 07:53:21;;;;;;;25.00;18.60;;;;;;;32.91;51.01;95064.28;5094318;28;20447;-81
2023/07/18 07:55:48;;;;;;;22.67;20.23;;;;;;;33.08;51.09;95056.75;5093755;28;20447;-81
2023/07/18 07:58:15;;;;;;;24.60;22.00;;;;;;;33.19;50.44;95057.59;5094622;28;20443;-82
2023/07/18 08:00:43;;;;;;;27.97;20.07;;;;;;;33.00;50.72;95061.91;5094641;28;20451;-81
2023/07/18 08:03:10;;;;;;;26.60;19.17;;;;;;;32.99;51.50;95055.66;5094584;28;20447;-81
2023/07/18 08:05:37;;;;;;;25.43;21.20;;;;;;;33.05;50.91;95048.31;5094197;28;20439;-81
2023/07/18 08:08:04;;;;;;;27.60;20.90;;;;;;;33.31;50.67;95055.50;5094500;28;20452;-81
2023/07/18 08:10:31;;;;;;;27.43;19.47;;;;;;;33.59;51.61;95050.66;5058896;28;20448;-81
2023/07/18 08:12:58;;;;;;;25.00;20.80;;;;;;;33.67;50.56;95059.09;5094244;28;20479;-81
2023/07/18 08:15:26;;;;;;;27.80;18.70;;;;;;;33.76;51.02;95056.66;5093927;28;20950;-82
2023/07/18 08:17:55;;;;;;;26.00;19.70;;;;;;;33.85;51.30;95050.44;5094233;28;20450;-81
2023/07/18 08:20:22;;;;;;;20.53;18.07;;;;;;;33.86;48.82;95046.63;5093937;28;20431;-82
2023/07/18 08:22:49;;;;;;;24.93;19.60;;;;;;;33.99;48.01;95045.25;5094220;28;20447;-81
2023/07/18 08:25:16;;;;;;;28.50;18.87;;;;;;;34.00;47.29;95046.91;5093899;28;20443;-81
2023/07/18 08:27:43;;;;;;;20.53;18.23;;;;;;;34.12;48.42;95052.09;5093950;28;20535;-82
2023/07/18 08:30:11;;;;;;;20.23;18.13;;;;;;;34.21;47.58;95047.72;5093731;28;20448;-82
2023/07/18 08:32:39;;;;;;;21.27;18.50;;;;;;;34.07;48.14;95047.44;5041564;28;20479;-81
2023/07/18 08:35:08;;;;;;;22.43;19.03;;;;;;;33.94;48.01;95049.91;5094169;28;20505;-81
2023/07/18 08:37:35;;;;;;;24.87;19.57;;;;;;;33.92;48.37;95050.19;5093683;28;20439;-82
2023/07/18 08:40:03;;;;;;;23.53;21.00;;;;;;;33.93;48.71;95045.53;5093406;28;20436;-82
2023/07/18 08:42:33;;;;;;;29.73;20.13;;;;;;;34.03;49.30;95046.34;5093232;28;20512;-81
2023/07/18 08:45:00;;;;;;;23.53;21.13;;;;;;;34.14;48.11;95047.19;5093265;28;20440;-81
2023/07/18 08:47:27;;;;;;;23.60;21.43;;;;;;;34.15;47.29;95043.38;5093484;28;20436;-81
2023/07/18 08:49:54;;;;;;;23.83;21.50;;;;;;;34.27;48.00;95040.34;5093473;28;20950;-82
2023/07/18 08:52:22;;;;;;;22.20;19.90;;;;;;;34.38;47.32;95044.69;5041398;28;20486;-82
2023/07/18 08:54:49;;;;;;;23.37;21.23;;;;;;;34.45;47.46;95034.34;5093582;28;20467;-82
2023/07/18 08:57:17;;;;;;;25.80;22.03;;;;;;;34.62;47.52;95032.09;5093266;28;20957;-82
2023/07/18 08:59:45;;;;;;;23.97;19.77;;;;;;;34.59;47.43;95040.84;5093376;28;20479;-82
2023/07/18 09:02:11;;;;;;;23.37;19.93;;;;;;;34.72;46.16;95034.81;5093360;28;20504;-82
2023/07/18 09:04:38;;;;;;;23.63;21.20;;;;;;;34.84;45.37;95034.53;5093307;28;20440;-80
2023/07/18 09:07:05;;;;;;;21.70;19.13;;;;;;;34.92;46.15;95031.22;5093370;28;20443;-83
2023/07/18 09:09:33;;;;;;;21.33;19.47;;;;;;;35.05;45.16;95035.25;5093115;28;20459;-83
2023/07/18 09:12:02;;;;;;;22.37;20.17;;;;;;;35.12;45.83;95027.59;5093182;28;20480;-83
2023/07/18 09:14:30;;;;;;;23.37;21.33;;;;;;;34.93;46.23;95026.56;5093454;28;20522;-82
2023/07/18 09:17:00;;;;;;;25.20;18.83;;;;;;;34.59;46.35;95031.84;5093963;28;20451;-82
2023/07/18 09:19:36;;;;;;;21.60;19.53;;;;;;;34.44;46.40;95024.53;5093136;28;20960;-82
2023/07/18 09:22:05;;;;;;;23.77;21.33;;;;;;;34.12;46.87;95014.75;5057639;28;20435;-82
2023/07/18 09:24:35;;;;;;;27.47;21.73;;;;;;;33.92;47.62;95022.94;5092980;28;21006;-82
2023/07/18 09:27:02;;;;;;;24.67;22.03;;;;;;;33.84;48.68;95016.16;5042205;28;20801;-83
2023/07/18 09:29:29;;;;;;;21.70;19.60;;;;;;;33.94;48.15;95014.50;5093128;28;20451;-83
2023/07/18 09:31:56;;;;;;;23.03;20.60;;;;;;;33.95;48.38;95014.22;5092915;28;20487;-82
2023/07/18 09:34:26;;;;;;;23.17;20.97;;;;;;;33.86;48.94;95024.03;5093319;28;20446;-82
2023/07/18 09:36:57;;;;;;;35.07;21.30;;;;;;;33.90;49.04;95014.22;5040907;28;20444;-83
2023/07/18 09:39:25;;;;;;;22.30;20.00;;;;;;;33.86;48.68;95008.53;5040612;28;20462;-82
2023/07/18 09:41:55;;;;;;;20.73;18.30;;;;;;;34.01;47.54;95017.75;5093243;28;20475;-82
2023/07/18 09:44:24;;;;;;;20.73;18.83;;;;;;;34.06;48.67;95009.56;5092735;28;20439;-82
2023/07/18 09:46:51;;;;;;;23.47;20.07;;;;;;;34.23;47.72;95006.56;5092854;28;20532;-82
2023/07/18 09:49:19;;;;;;;22.50;19.10;;;;;;;34.37;47.43;94997.56;5092914;28;20459;-82
2023/07/18 09:51:51;;;;;;;27.43;17.00;;;;;;;34.37;46.72;95005.72;5092641;28;20540;-81
2023/07/18 09:54:20;;;;;;;21.23;18.07;;;;;;;34.14;46.98;95003.59;5093339;28;20493;-81
2023/07/18 09:56:49;;;;;;;19.03;17.20;;;;;;;33.98;47.75;95002.78;5092806;28;20922;-81
2023/07/18 09:59:21;;;;;;;20.40;16.53;;;;;;;33.59;48.16;95004.41;5057437;28;20454;-83
2023/07/18 10:01:49;;;;;;;19.83;17.37;;;;;;;33.35;48.91;94994.03;5092582;28;20451;-80
2023/07/18 10:04:17;;;;;;;19.47;17.40;;;;;;;33.13;49.98;94999.66;5093288;28;20806;-80
2023/07/18 10:06:45;;;;;;;19.73;17.83;;;;;;;33.11;50.49;94992.84;5092522;28;20783;-83
2023/07/18 10:09:13;;;;;;;19.33;17.23;;;;;;;33.17;50.08;94984.44;5092711;28;20444;-80
2023/07/18 10:12:12;;;;;;;19.57;17.00;;;;;;;33.25;50.74;94989.38;5092841;28;20812;-81
2023/07/18 10:14:56;;;;;;;27.60;19.13;;;;;;;33.38;50.90;94984.50;5092675;28;20990;-80
2023/07/18 10:17:41;;;;;;;20.53;18.50;;;;;;;33.25;49.92;94981.19;5093269;28;20443;-81
2023/07/18 10:20:13;;;;;;;18.03;16.10;;;;;;;33.26;51.21;94992.91;5096307;28;20455;-81
2023/07/18 10:22:48;;;;;;;20.50;17.00;;;;;;;33.25;49.68;94985.78;5096030;28;20895;-81
2023/07/18 10:25:18;;;;;;;19.60;17.70;;;;;;;33.28;49.32;94995.34;5044256;28;20439;-81
2023/07/18 10:27:46;;;;;;;21.23;17.30;;;;;;;33.39;50.04;94992.41;5043911;28;20934;-81
2023/07/18 10:30:17;;;;;;;19.00;17.30;;;;;;;33.54;49.39;94983.41;5044224;28;20489;-81
2023/07/18 10:32:51;;;;;;;19.00;16.00;;;;;;;33.67;47.13;94988.34;5060619;28;20484;-81
2023/07/18 10:35:19;;;;;;;17.10;15.03;;;;;;;33.71;48.01;94983.16;5096297;28;20949;-82
2023/07/18 10:37:50;;;;;;;16.67;14.90;;;;;;;33.75;48.45;94984.25;5096594;28;20504;-82
2023/07/18 10:40:33;;;;;;;16.60;15.07;;;;;;;33.73;46.83;94980.97;5096227;28;20455;-81
2023/07/18 10:43:01;;;;;;;18.03;15.80;;;;;;;33.58;47.47;94979.09;5095716;28;20444;-82
2023/07/18 10:45:36;;;;;;;22.20;15.63;;;;;;;33.36;47.48;94986.69;5096027;28;20447;-81
2023/07/18 10:48:10;;;;;;;16.53;13.97;;;;;;;33.37;47.57;94977.44;5096306;28;20447;-81
2023/07/18 10:50:37;;;;;;;15.70;14.20;;;;;;;33.20;48.14;94975.72;5096088;28;20808;-81
2023/07/18 10:53:04;;;;;;;18.03;16.13;;;;;;;33.05;48.16;94978.44;5095875;28;21078;-82
2023/07/18 10:55:31;;;;;;;15.10;13.57;;;;;;;33.16;47.33;94981.97;5095872;28;20444;-81
2023/07/18 10:57:58;;;;;;;15.80;13.87;;;;;;;33.24;47.86;94979.53;5096080;28;20494;-82
2023/07/18 11:00:25;;;;;;;11.00;10.20;;;;;;;33.29;43.25;94975.22;5095936;28;20440;-82
2023/07/18 11:02:53;;;;;;;11.57;10.47;;;;;;;33.26;42.67;94979.28;5096392;28;20446;-82
2023/07/18 11:05:21;;;;;;;9.97;8.97;;;;;;;33.28;43.22;94979.03;5096227;28;20472;-81
2023/07/18 11:07:49;;;;;;;11.90;10.50;;;;;;;33.28;44.91;94974.41;5103655;28;20451;-81
2023/07/18 11:10:16;;;;;;;11.70;9.93;;;;;;;33.32;43.69;94980.16;5116854;28;20535;-81
2023/07/18 11:12:43;;;;;;;9.33;8.33;;;;;;;33.26;41.25;94992.91;5106204;28;20867;-81
2023/07/18 11:15:12;;;;;;;10.97;7.23;;;;;;;33.10;42.17;94977.63;5095953;28;20444;-81
2023/07/18 11:17:39;;;;;;;10.60;8.17;;;;;;;33.16;41.74;94988.22;5095480;28;20447;-82
2023/07/18 11:20:11;;;;;;;7.10;6.37;;;;;;;33.25;39.24;94989.38;5095438;28;20447;-81
2023/07/18 11:22:38;;;;;;;6.23;5.37;;;;;;;33.39;37.43;94986.13;5095138;28;20444;-82
2023/07/18 11:25:06;;;;;;;6.70;5.23;;;;;;;33.41;37.54;94989.41;5095227;28;20444;-82
2023/07/18 11:27:33;;;;;;;10.30;6.37;;;;;;;33.40;36.34;94994.03;5096796;28;20463;-82
2023/07/18 11:30:02;;;;;;;6.63;6.00;;;;;;;33.41;35.04;94992.13;5094804;28;20440;-82
2023/07/18 11:32:39;;;;;;;10.10;5.93;;;;;;;33.55;35.92;94996.78;5042609;28;21015;-82
2023/07/18 11:35:09;;;;;;;7.07;5.70;;;;;;;33.53;33.90;94992.66;5094999;28;20446;-81
2023/07/18 11:37:37;;;;;;;12.57;7.03;;;;;;;33.59;35.38;94991.59;5094814;28;20448;-81
2023/07/18 11:40:04;;;;;;;14.10;6.47;;;;;;;33.57;36.79;94982.91;5042961;28;20451;-82
2023/07/18 11:42:47;;;;;;;7.10;6.40;;;;;;;33.61;35.09;94983.16;5094779;28;20483;-81
2023/07/18 11:45:16;;;;;;;8.60;5.80;;;;;;;33.63;35.00;94975.53;5012406;28;20487;-82
2023/07/18 11:47:44;;;;;;;5.90;5.10;;;;;;;33.59;34.61;94978.00;5012670;28;20439;-81
2023/07/18 11:50:14;;;;;;;8.90;5.60;;;;;;;33.61;35.29;94983.97;5012575;28;20591;-82
2023/07/18 11:52:42;;;;;;;6.60;5.50;;;;;;;33.63;34.58;94981.00;4979341;28;20557;-82
2023/07/18 11:55:09;;;;;;;6.90;5.97;;;;;;;33.64;32.99;94963.56;4979828;28;20958;-81
2023/07/18 11:57:36;;;;;;;9.70;6.50;;;;;;;33.66;34.30;94975.81;5012143;28;20444;-82
2023/07/18 12:00:04;;;;;;;6.90;6.20;;;;;;;33.71;34.04;94972.25;5012521;28;20459;-82
2023/07/18 12:02:31;;;;;;;9.63;6.30;;;;;;;33.60;33.85;94993.25;5012252;28;20451;-82